Time;durP1;ratioP1;P1;durP2;ratioP2;P2;SDS_P1;SDS_P2;PMS_P1;PMS_P2;Temp;Humidity;BMP_temperature;BMP_pressure;BME280_temperature;BME280_humidity;BME280_pressure;Samples;Min_cycle;Max_cycle;Signal;HPM_P1;HPM_P2
2023/12/13 00:01:22;;;;;;;15.93;6.95;;;;;;;7.28;100.00;99610.44;6087066;19;20359;-71
2023/12/13 00:03:32;;;;;;;16.65;7.30;;;;;;;7.30;100.00;99609.44;6087853;19;20482;-71
2023/12/13 00:05:37;;;;;;;15.98;6.65;;;;;;;7.35;100.00;99611.84;6083237;19;20007;-71
2023/12/13 00:07:40;;;;;;;13.80;7.07;;;;;;;7.33;100.00;99608.44;6083992;19;20108;-71
2023/12/13 00:09:45;;;;;;;19.88;7.57;;;;;;;7.30;100.00;99601.59;6086377;19;20052;-70
2023/12/13 00:11:50;;;;;;;15.10;6.63;;;;;;;7.28;100.00;99603.44;6087784;19;20045;-70
2023/12/13 00:13:55;;;;;;;17.98;6.95;;;;;;;7.24;100.00;99607.09;6085190;19;20461;-71
2023/12/13 00:16:02;;;;;;;14.50;6.68;;;;;;;7.27;100.00;99604.34;6084533;19;20041;-70
2023/12/13 00:18:07;;;;;;;15.93;7.85;;;;;;;7.17;100.00;99597.88;6078309;19;20014;-71
2023/12/13 00:20:15;;;;;;;18.38;7.90;;;;;;;7.21;100.00;99599.41;6085675;19;20079;-75
2023/12/13 00:22:20;;;;;;;13.10;7.90;;;;;;;7.23;100.00;99598.41;6085954;19;20499;-75
2023/12/13 00:24:25;;;;;;;19.83;7.53;;;;;;;7.25;100.00;99600.97;6083321;19;20644;-75
2023/12/13 00:26:30;;;;;;;17.52;8.18;;;;;;;7.21;100.00;99591.56;6086889;19;20006;-75
2023/12/13 00:28:36;;;;;;;16.92;8.07;;;;;;;7.21;100.00;99594.16;6086899;19;20726;-75
2023/12/13 00:30:41;;;;;;;18.40;8.27;;;;;;;7.21;100.00;99596.78;6084540;19;20373;-71
2023/12/13 00:32:46;;;;;;;19.58;7.78;;;;;;;7.23;100.00;99592.34;6087523;19;20042;-71
2023/12/13 00:34:52;;;;;;;16.42;8.45;;;;;;;7.26;100.00;99597.41;6086981;19;20481;-71
2023/12/13 00:37:01;;;;;;;18.25;8.50;;;;;;;7.25;100.00;99601.81;6086163;19;20352;-71
2023/12/13 00:39:08;;;;;;;18.45;7.40;;;;;;;7.25;100.00;99599.19;6083980;19;20013;-71
2023/12/13 00:41:13;;;;;;;20.50;9.13;;;;;;;7.23;100.00;99597.56;6086995;19;20007;-71
2023/12/13 00:43:20;;;;;;;15.27;8.20;;;;;;;7.25;100.00;99600.97;6086623;19;20006;-70
2023/12/13 00:45:25;;;;;;;24.30;9.48;;;;;;;7.30;100.00;99598.97;6087989;19;20015;-74
2023/12/13 00:47:30;;;;;;;28.52;7.95;;;;;;;7.26;100.00;99600.88;6086190;19;20014;-75
2023/12/13 00:49:35;;;;;;;21.40;8.65;;;;;;;7.27;100.00;99612.19;6088162;19;20358;-76
2023/12/13 00:51:40;;;;;;;17.58;8.25;;;;;;;7.26;100.00;99598.25;6086580;19;20395;-75
2023/12/13 00:53:49;;;;;;;17.90;7.13;;;;;;;7.34;100.00;99605.75;6079428;19;20502;-74
2023/12/13 00:55:54;;;;;;;14.98;7.80;;;;;;;7.32;100.00;99597.16;6083551;19;20037;-73
2023/12/13 00:57:59;;;;;;;13.07;7.20;;;;;;;7.36;100.00;99598.69;6083233;19;20011;-74
2023/12/13 01:00:05;;;;;;;18.00;7.47;;;;;;;7.39;100.00;99597.69;6084093;19;20011;-74
2023/12/13 01:02:10;;;;;;;19.80;7.35;;;;;;;7.40;100.00;99602.03;6084973;19;21021;-75
2023/12/13 01:04:15;;;;;;;16.80;7.03;;;;;;;7.34;100.00;99600.50;6083623;19;20016;-74
2023/12/13 01:06:23;;;;;;;15.25;7.47;;;;;;;7.35;100.00;99599.63;6085506;19;20006;-75
2023/12/13 01:08:25;;;;;;;13.63;6.07;;;;;;;7.36;100.00;99595.22;6084307;19;20037;-76
2023/12/13 01:10:35;;;;;;;18.50;7.32;;;;;;;7.37;100.00;99592.56;6084039;19;20010;-74
2023/12/13 01:12:43;;;;;;;15.75;6.53;;;;;;;7.38;100.00;99594.25;6082378;19;20328;-74
2023/12/13 01:14:46;;;;;;;13.93;5.88;;;;;;;7.40;100.00;99599.41;6084057;19;20034;-70
2023/12/13 01:16:52;;;;;;;25.00;6.22;;;;;;;7.41;100.00;99599.31;6081920;19;20074;-70
2023/12/13 01:18:59;;;;;;;13.70;6.82;;;;;;;7.38;100.00;99596.84;6083252;19;20021;-70
2023/12/13 01:21:06;;;;;;;13.63;6.93;;;;;;;7.42;100.00;99587.94;6084357;19;20097;-70
2023/12/13 01:23:11;;;;;;;19.73;6.57;;;;;;;7.44;100.00;99595.72;6086370;19;20014;-70
2023/12/13 01:25:19;;;;;;;11.70;5.82;;;;;;;7.47;100.00;99592.94;6084286;19;20020;-69
2023/12/13 01:27:24;;;;;;;14.20;5.85;;;;;;;7.49;100.00;99593.72;6084541;19;20731;-71
2023/12/13 01:29:33;;;;;;;10.65;5.03;;;;;;;7.53;100.00;99599.66;6084101;19;20078;-71
2023/12/13 01:31:38;;;;;;;9.80;5.00;;;;;;;7.52;100.00;99604.03;6079879;19;20249;-70
2023/12/13 01:33:43;;;;;;;13.75;5.55;;;;;;;7.54;100.00;99607.44;6084109;19;20002;-70
2023/12/13 01:36:03;;;;;;;8.52;4.45;;;;;;;7.54;100.00;99602.19;6081731;19;20956;-70
2023/12/13 01:38:10;;;;;;;14.10;5.35;;;;;;;7.51;100.00;99604.13;5982315;19;2004490;-69
2023/12/13 01:40:18;;;;;;;11.10;5.07;;;;;;;7.49;100.00;99604.19;6082743;19;20022;-70
2023/12/13 01:42:25;;;;;;;13.25;5.75;;;;;;;7.47;100.00;99599.00;6082495;19;20375;-70
2023/12/13 01:44:33;;;;;;;12.80;5.75;;;;;;;7.45;100.00;99600.00;6084184;19;20014;-70
2023/12/13 01:46:38;;;;;;;11.10;5.65;;;;;;;7.45;100.00;99605.22;6084112;19;20050;-75
2023/12/13 01:48:44;;;;;;;13.77;5.35;;;;;;;7.47;100.00;99596.41;6085637;19;20021;-73
2023/12/13 01:50:47;;;;;;;15.20;5.65;;;;;;;7.44;100.00;99596.56;6084767;19;20473;-75
2023/12/13 01:52:52;;;;;;;15.32;5.57;;;;;;;7.42;100.00;99603.63;6083194;19;20157;-73
2023/12/13 01:54:54;;;;;;;11.98;4.80;;;;;;;7.38;100.00;99601.25;6080500;19;20779;-73
2023/12/13 01:57:00;;;;;;;16.45;5.35;;;;;;;7.48;100.00;99608.56;6082729;19;20014;-74
2023/12/13 01:59:07;;;;;;;10.20;4.50;;;;;;;7.46;100.00;99607.78;6086785;19;20489;-75
2023/12/13 02:01:13;;;;;;;10.80;4.68;;;;;;;7.47;100.00;99603.41;6082120;19;20015;-75
2023/12/13 02:03:35;;;;;;;12.50;4.38;;;;;;;7.40;100.00;99599.41;6073246;19;20016;-69
2023/12/13 02:05:43;;;;;;;10.75;4.95;;;;;;;7.37;100.00;99607.38;6081666;19;20010;-70
2023/12/13 02:07:48;;;;;;;13.35;4.70;;;;;;;7.36;100.00;99603.91;6081752;19;20021;-69
2023/12/13 02:09:53;;;;;;;11.52;5.07;;;;;;;7.36;100.00;99603.91;6083778;19;20018;-70
2023/12/13 02:12:02;;;;;;;10.95;4.90;;;;;;;7.32;100.00;99606.72;6081377;19;20494;-70
2023/12/13 02:14:12;;;;;;;12.60;5.07;;;;;;;7.34;100.00;99602.28;5998215;19;2004887;-70
2023/12/13 02:16:19;;;;;;;11.55;5.05;;;;;;;7.28;100.00;99602.59;6083631;19;20029;-70
2023/12/13 02:18:25;;;;;;;13.30;5.30;;;;;;;7.21;100.00;99597.66;6083910;19;20045;-70
2023/12/13 02:20:32;;;;;;;19.52;6.00;;;;;;;7.13;100.00;99593.69;6078740;19;20014;-70
2023/12/13 02:22:43;;;;;;;9.68;4.85;;;;;;;7.23;100.00;99595.78;6081853;19;20444;-70
2023/12/13 02:24:56;;;;;;;13.60;6.30;;;;;;;7.16;100.00;99597.03;6082938;19;20751;-70
2023/12/13 02:27:02;;;;;;;12.93;5.15;;;;;;;7.11;100.00;99592.91;6082095;19;20037;-75
2023/12/13 02:29:07;;;;;;;14.55;5.57;;;;;;;7.04;100.00;99590.59;6082964;19;20023;-75
2023/12/13 02:31:12;;;;;;;15.63;6.47;;;;;;;7.00;100.00;99596.88;6081877;19;20011;-75
2023/12/13 02:33:24;;;;;;;14.25;7.50;;;;;;;6.98;100.00;99601.31;6083795;19;20456;-70
2023/12/13 02:35:30;;;;;;;15.80;7.05;;;;;;;6.99;100.00;99587.34;6083318;19;21983;-70
2023/12/13 02:37:35;;;;;;;15.98;7.65;;;;;;;6.92;100.00;99596.34;6081748;19;20018;-75
2023/12/13 02:39:43;;;;;;;23.17;8.95;;;;;;;6.91;100.00;99592.06;6082022;19;20017;-74
2023/12/13 02:41:48;;;;;;;20.88;9.15;;;;;;;6.89;100.00;99599.09;6080286;19;20011;-72
2023/12/13 02:43:55;;;;;;;19.33;8.93;;;;;;;6.87;100.00;99595.72;6082537;19;20007;-70
2023/12/13 02:46:00;;;;;;;21.92;10.43;;;;;;;6.86;100.00;99594.03;6080070;19;20019;-74
2023/12/13 02:48:06;;;;;;;21.38;10.75;;;;;;;6.90;100.00;99590.38;6081392;19;20017;-74
2023/12/13 02:50:12;;;;;;;25.10;11.70;;;;;;;6.82;100.00;99585.50;6081774;19;20013;-72
2023/12/13 02:52:17;;;;;;;22.98;10.38;;;;;;;6.81;100.00;99596.00;6080010;19;20466;-73
2023/12/13 02:54:19;;;;;;;23.23;10.02;;;;;;;6.75;100.00;99591.91;6081134;19;20034;-75
2023/12/13 02:56:27;;;;;;;22.83;11.25;;;;;;;6.73;100.00;99591.13;6075271;19;20468;-75
2023/12/13 02:58:32;;;;;;;23.58;10.70;;;;;;;6.72;100.00;99593.81;6081995;19;20057;-70
2023/12/13 03:00:41;;;;;;;22.02;10.75;;;;;;;6.69;100.00;99597.41;6079815;19;20006;-69
2023/12/13 03:02:46;;;;;;;24.27;11.82;;;;;;;6.69;100.00;99599.16;6079618;19;20010;-71
2023/12/13 03:04:51;;;;;;;22.15;11.45;;;;;;;6.66;100.00;99601.91;6082902;19;20024;-74
2023/12/13 03:06:58;;;;;;;23.92;11.57;;;;;;;6.62;100.00;99595.13;6081495;19;20011;-71
2023/12/13 03:09:06;;;;;;;15.88;9.95;;;;;;;6.60;100.00;99595.19;6077197;19;20006;-70
2023/12/13 03:11:15;;;;;;;24.73;11.35;;;;;;;6.60;100.00;99596.03;6080341;19;20498;-70
2023/12/13 03:13:27;;;;;;;23.20;11.52;;;;;;;6.62;100.00;99593.38;6077522;19;20018;-75
2023/12/13 03:15:33;;;;;;;21.60;10.82;;;;;;;6.60;100.00;99596.03;6080542;19;20019;-70
2023/12/13 03:17:38;;;;;;;20.15;10.63;;;;;;;6.60;100.00;99589.97;6076114;19;20067;-70
2023/12/13 03:19:44;;;;;;;22.10;9.90;;;;;;;6.53;100.00;99588.53;6078710;19;20062;-70
2023/12/13 03:21:49;;;;;;;23.90;12.18;;;;;;;6.50;100.00;99594.78;6081579;19;20365;-73
2023/12/13 03:23:51;;;;;;;23.05;10.88;;;;;;;6.45;100.00;99594.13;6081220;19;20021;-74
2023/12/13 03:25:59;;;;;;;24.48;11.80;;;;;;;6.52;100.00;99597.28;6081468;19;20085;-74
2023/12/13 03:28:02;;;;;;;22.20;11.35;;;;;;;6.49;100.00;99595.66;6079570;19;20015;-74
2023/12/13 03:30:14;;;;;;;26.35;11.27;;;;;;;6.49;100.00;99594.81;6082076;19;20030;-70
2023/12/13 03:32:22;;;;;;;20.48;10.48;;;;;;;6.53;100.00;99589.41;6078330;19;20010;-71
2023/12/13 03:34:28;;;;;;;16.88;9.45;;;;;;;6.53;100.00;99583.31;6081116;19;20038;-75
2023/12/13 03:36:30;;;;;;;22.20;11.18;;;;;;;6.53;100.00;99585.94;6080923;19;20455;-74
2023/12/13 03:38:37;;;;;;;21.25;9.82;;;;;;;6.57;100.00;99590.94;6080628;19;20387;-75
2023/12/13 03:40:44;;;;;;;22.10;9.38;;;;;;;6.65;100.00;99588.00;6078806;19;20720;-75
2023/12/13 03:42:47;;;;;;;20.05;9.68;;;;;;;6.65;100.00;99584.56;6083707;19;20066;-74
2023/12/13 03:44:52;;;;;;;20.65;8.85;;;;;;;6.69;100.00;99586.97;6079568;19;20043;-75
2023/12/13 03:46:59;;;;;;;24.15;8.35;;;;;;;6.75;100.00;99583.22;6080303;19;20014;-75
2023/12/13 03:49:03;;;;;;;16.58;8.27;;;;;;;6.74;100.00;99579.78;6081897;19;20482;-75
2023/12/13 03:51:08;;;;;;;14.70;7.57;;;;;;;6.75;100.00;99575.41;6081986;19;20011;-74
2023/12/13 03:53:14;;;;;;;16.80;8.25;;;;;;;6.73;100.00;99582.44;6080077;19;20021;-75
2023/12/13 03:55:16;;;;;;;14.57;7.00;;;;;;;6.70;100.00;99582.59;6080729;19;20035;-75
2023/12/13 03:57:21;;;;;;;17.58;7.10;;;;;;;6.74;100.00;99586.75;6081410;19;20014;-75
2023/12/13 03:59:26;;;;;;;18.45;6.22;;;;;;;6.79;100.00;99582.16;6080860;19;20314;-74
2023/12/13 04:01:32;;;;;;;17.08;5.97;;;;;;;6.80;100.00;99578.66;6080843;19;20396;-74
2023/12/13 04:03:40;;;;;;;18.42;6.18;;;;;;;6.84;100.00;99569.75;6080115;19;20029;-73
2023/12/13 04:05:45;;;;;;;16.08;6.88;;;;;;;6.85;100.00;99568.00;6082382;19;20017;-74
2023/12/13 04:07:49;;;;;;;19.58;7.05;;;;;;;6.85;100.00;99571.47;6082501;19;20463;-74
2023/12/13 04:09:52;;;;;;;16.05;7.22;;;;;;;6.85;100.00;99570.63;6081660;19;20098;-74
2023/12/13 04:11:57;;;;;;;18.90;7.20;;;;;;;6.88;100.00;99571.31;6082285;19;20098;-73
2023/12/13 04:14:02;;;;;;;22.85;8.18;;;;;;;6.86;100.00;99580.13;6082276;19;20010;-73
2023/12/13 04:16:11;;;;;;;19.13;7.15;;;;;;;6.92;100.00;99578.06;6075648;19;20066;-69
2023/12/13 04:18:16;;;;;;;16.02;7.47;;;;;;;6.95;100.00;99569.25;6079068;19;20010;-69
2023/12/13 04:20:24;;;;;;;19.90;7.70;;;;;;;6.95;100.00;99577.09;6076355;19;21508;-69
2023/12/13 04:22:32;;;;;;;18.05;6.32;;;;;;;6.93;100.00;99569.34;6077287;19;20010;-70
2023/12/13 04:24:38;;;;;;;20.02;8.40;;;;;;;6.95;100.00;99570.13;6080556;19;20537;-70
2023/12/13 04:26:43;;;;;;;20.48;8.65;;;;;;;6.95;100.00;99567.50;6076241;19;20421;-71
2023/12/13 04:28:51;;;;;;;16.60;6.55;;;;;;;7.02;100.00;99574.13;6081225;19;20002;-69
2023/12/13 04:30:54;;;;;;;18.17;7.18;;;;;;;7.01;100.00;99567.22;6081824;19;20086;-76
2023/12/13 04:32:59;;;;;;;17.63;7.18;;;;;;;6.99;100.00;99566.44;6079125;19;20124;-74
2023/12/13 04:35:08;;;;;;;14.70;6.80;;;;;;;6.97;100.00;99570.03;6081664;19;20007;-73
2023/12/13 04:37:16;;;;;;;15.77;6.65;;;;;;;6.97;100.00;99564.81;6078335;19;20011;-73
2023/12/13 04:39:18;;;;;;;17.30;7.85;;;;;;;6.98;100.00;99571.75;6080030;19;20010;-75
2023/12/13 04:41:23;;;;;;;17.08;7.07;;;;;;;6.98;100.00;99566.53;6080214;19;20652;-75
2023/12/13 04:43:28;;;;;;;18.17;6.82;;;;;;;7.04;100.00;99564.47;6085158;19;20482;-75
2023/12/13 04:45:33;;;;;;;23.02;7.32;;;;;;;7.09;100.00;99573.88;6085447;19;20037;-75
2023/12/13 04:47:38;;;;;;;14.20;6.75;;;;;;;7.07;100.00;99571.31;6084242;19;20011;-75
2023/12/13 04:49:44;;;;;;;21.73;8.20;;;;;;;7.12;100.00;99571.09;6084189;19;20014;-70
2023/12/13 04:51:49;;;;;;;20.52;7.75;;;;;;;7.07;100.00;99568.69;6082541;19;20426;-69
2023/12/13 04:53:59;;;;;;;17.70;7.57;;;;;;;7.06;100.00;99569.63;6082111;19;20014;-70
2023/12/13 04:56:06;;;;;;;23.10;7.25;;;;;;;7.04;100.00;99571.47;6081827;19;20096;-70
2023/12/13 04:58:12;;;;;;;23.50;9.32;;;;;;;7.08;100.00;99569.53;6083611;19;20964;-70
2023/12/13 05:00:18;;;;;;;27.60;8.38;;;;;;;7.10;100.00;99565.09;6084403;19;20020;-70
2023/12/13 05:02:22;;;;;;;26.08;7.63;;;;;;;7.08;100.00;99567.78;6084741;19;20010;-70
2023/12/13 05:04:30;;;;;;;28.52;9.82;;;;;;;7.08;100.00;99567.78;6084114;19;20002;-71
2023/12/13 05:06:35;;;;;;;19.38;8.00;;;;;;;7.11;100.00;99569.38;6082836;19;20021;-70
2023/12/13 05:08:46;;;;;;;21.88;10.43;;;;;;;7.13;100.00;99567.56;6082673;19;20007;-70
2023/12/13 05:10:50;;;;;;;25.80;8.73;;;;;;;7.14;100.00;99571.88;6084653;19;20013;-74
2023/12/13 05:12:55;;;;;;;24.77;8.77;;;;;;;7.16;100.00;99567.41;6083462;19;20119;-73
2023/12/13 05:15:00;;;;;;;21.17;8.55;;;;;;;7.15;100.00;99569.19;6082905;19;20045;-74
2023/12/13 05:17:06;;;;;;;19.15;8.95;;;;;;;7.17;100.00;99563.91;6081948;19;20478;-74
2023/12/13 05:19:11;;;;;;;24.30;9.00;;;;;;;7.20;100.00;99572.44;6082822;19;20029;-74
2023/12/13 05:21:16;;;;;;;19.92;8.98;;;;;;;7.20;100.00;99568.97;6085211;19;20027;-74
2023/12/13 05:23:21;;;;;;;26.30;10.35;;;;;;;7.15;100.00;99568.34;6083394;19;20469;-74
2023/12/13 05:25:26;;;;;;;22.50;8.05;;;;;;;7.16;100.00;99559.56;6086399;19;20035;-74
2023/12/13 05:27:33;;;;;;;24.95;8.13;;;;;;;7.17;100.00;99569.13;6085664;19;20014;-74
2023/12/13 05:29:39;;;;;;;26.42;9.90;;;;;;;7.18;100.00;99566.41;6087076;19;20122;-73
2023/12/13 05:31:44;;;;;;;25.75;8.68;;;;;;;7.20;100.00;99561.97;6082552;19;20030;-73
2023/12/13 05:33:48;;;;;;;25.15;8.98;;;;;;;7.19;100.00;99570.75;6085332;19;20007;-73
2023/12/13 05:35:53;;;;;;;25.88;9.50;;;;;;;7.19;100.00;99569.91;6085924;19;20090;-73
2023/12/13 05:38:00;;;;;;;26.33;9.23;;;;;;;7.19;100.00;99559.47;6082759;19;20021;-73
2023/12/13 05:40:06;;;;;;;24.10;9.05;;;;;;;7.19;100.00;99562.91;6086985;19;20024;-75
2023/12/13 05:42:20;;;;;;;21.92;8.20;;;;;;;7.20;100.00;99571.59;6086745;19;20003;-70
2023/12/13 05:44:27;;;;;;;17.20;8.70;;;;;;;7.17;100.00;99571.75;6084872;19;20796;-69
2023/12/13 05:46:37;;;;;;;19.77;8.52;;;;;;;7.12;100.00;99569.34;6080337;19;20701;-70
2023/12/13 05:48:47;;;;;;;28.83;8.52;;;;;;;7.15;100.00;99573.56;6086511;19;20010;-69
2023/12/13 05:50:54;;;;;;;21.52;8.60;;;;;;;7.14;100.00;99574.50;6078245;19;20114;-73
2023/12/13 05:53:00;;;;;;;26.38;9.98;;;;;;;7.20;100.00;99576.81;6079200;19;20014;-73
2023/12/13 05:55:03;;;;;;;23.60;8.88;;;;;;;7.18;100.00;99574.25;6084702;19;20014;-73
2023/12/13 05:57:08;;;;;;;;;;;;;;;7.17;100.00;99567.34;6083908;19;20462;-73
2023/12/13 05:59:13;;;;;;;23.23;7.97;;;;;;;7.18;100.00;99571.66;6083451;19;19914;-73
2023/12/13 06:01:22;;;;;;;24.90;9.35;;;;;;;7.19;100.00;99569.91;6083955;19;20011;-75
2023/12/13 06:03:27;;;;;;;23.63;8.38;;;;;;;7.19;100.00;99570.75;6078831;19;20021;-74
2023/12/13 06:05:32;;;;;;;28.58;9.50;;;;;;;7.25;100.00;99565.22;6084369;19;20015;-74
2023/12/13 06:07:35;;;;;;;21.85;8.13;;;;;;;7.25;100.00;99570.44;6085584;19;20021;-72
2023/12/13 06:09:43;;;;;;;;;;;;;;;7.27;100.00;99573.00;6083765;19;20383;-69
2023/12/13 06:11:48;;;;;;;19.27;8.40;;;;;;;7.25;100.00;99575.69;6085957;19;19919;-75
2023/12/13 06:13:53;;;;;;;23.17;10.27;;;;;;;7.31;100.00;99578.91;6084932;19;20011;-75
2023/12/13 06:15:58;;;;;;;25.00;9.50;;;;;;;7.32;100.00;99578.88;6084949;19;20014;-74
2023/12/13 06:18:06;;;;;;;23.52;8.85;;;;;;;7.32;100.00;99576.25;6083375;19;20023;-74
2023/12/13 06:20:13;;;;;;;24.83;9.07;;;;;;;7.33;100.00;99577.94;6080621;19;20145;-70
2023/12/13 06:22:21;;;;;;;29.92;9.00;;;;;;;7.32;100.00;99580.59;6083191;19;20569;-69
2023/12/13 06:24:27;;;;;;;20.23;8.00;;;;;;;7.34;100.00;99577.00;6084419;19;20608;-69
2023/12/13 06:26:35;;;;;;;22.10;8.23;;;;;;;7.38;100.00;99578.56;6084314;19;20022;-70
2023/12/13 06:28:44;;;;;;;27.60;10.73;;;;;;;7.37;100.00;99576.00;6080792;19;20003;-70
2023/12/13 06:30:49;;;;;;;30.40;8.40;;;;;;;7.37;100.00;99579.50;6080816;19;20093;-71
2023/12/13 06:32:55;;;;;;;27.20;8.07;;;;;;;7.41;100.00;99580.19;6082975;19;20011;-71
2023/12/13 06:35:03;;;;;;;24.77;8.32;;;;;;;7.42;100.00;99584.47;6083604;19;20019;-70
2023/12/13 06:37:08;;;;;;;18.80;7.45;;;;;;;7.37;100.00;99579.50;6082291;19;20007;-70
2023/12/13 06:39:17;;;;;;;22.73;8.48;;;;;;;7.36;100.00;99577.78;6081152;19;20006;-71
2023/12/13 06:41:22;;;;;;;18.50;8.30;;;;;;;7.38;100.00;99575.94;6082823;19;20008;-70
2023/12/13 06:43:27;;;;;;;20.27;9.05;;;;;;;7.41;100.00;99583.63;6083458;19;20018;-70
2023/12/13 06:45:40;;;;;;;19.73;8.23;;;;;;;7.40;100.00;99581.94;6083415;19;20014;-70
2023/12/13 06:47:48;;;;;;;27.88;9.00;;;;;;;7.46;100.00;99588.66;6083113;19;20038;-70
2023/12/13 06:49:53;;;;;;;21.75;7.55;;;;;;;7.46;100.00;99583.44;6082928;19;20006;-71
2023/12/13 06:52:02;;;;;;;26.80;8.77;;;;;;;7.50;100.00;99584.13;6083557;19;20110;-72
2023/12/13 06:54:08;;;;;;;17.45;7.68;;;;;;;7.48;100.00;99578.97;6077883;19;20028;-74
2023/12/13 06:56:13;;;;;;;21.55;7.60;;;;;;;7.48;100.00;99582.44;6079928;19;20010;-73
2023/12/13 06:58:18;;;;;;;21.02;7.90;;;;;;;7.46;100.00;99581.66;6081356;19;20035;-73
2023/12/13 07:00:27;;;;;;;21.17;7.65;;;;;;;7.47;100.00;99583.34;6079635;19;20628;-73
2023/12/13 07:02:35;;;;;;;30.45;9.65;;;;;;;7.55;100.00;99582.97;6079264;19;20037;-73
2023/12/13 07:04:38;;;;;;;22.23;8.60;;;;;;;7.55;100.00;99592.59;6079892;19;20010;-73
2023/12/13 07:06:44;;;;;;;23.45;8.40;;;;;;;7.55;100.00;99587.34;6082359;19;20462;-72
2023/12/13 07:08:52;;;;;;;20.20;8.13;;;;;;;7.56;100.00;99583.84;6079579;19;20011;-71
2023/12/13 07:10:56;;;;;;;21.75;8.82;;;;;;;7.53;100.00;99589.19;6083738;19;20011;-73
2023/12/13 07:13:08;;;;;;;25.45;8.43;;;;;;;7.54;100.00;99593.50;6082052;19;20648;-71
2023/12/13 07:15:14;;;;;;;28.80;9.90;;;;;;;7.52;100.00;99585.72;5981829;19;2004794;-71
2023/12/13 07:17:19;;;;;;;21.05;8.60;;;;;;;7.57;100.00;99595.97;6081175;19;20037;-74
2023/12/13 07:19:24;;;;;;;18.35;6.95;;;;;;;7.58;100.00;99589.81;6078608;19;20024;-75
2023/12/13 07:21:29;;;;;;;16.23;6.93;;;;;;;7.54;100.00;99591.75;6079252;19;20018;-75
2023/12/13 07:23:35;;;;;;;24.92;9.38;;;;;;;7.54;100.00;99601.34;6076380;19;20390;-74
2023/12/13 07:25:43;;;;;;;18.75;8.60;;;;;;;7.53;100.00;99600.50;6077706;19;20355;-73
2023/12/13 07:27:49;;;;;;;23.20;7.90;;;;;;;7.56;100.00;99600.38;6080832;19;20032;-72
2023/12/13 07:29:53;;;;;;;15.48;7.82;;;;;;;7.51;100.00;99601.50;6082291;19;20399;-71
2023/12/13 07:31:59;;;;;;;31.10;10.48;;;;;;;7.50;100.00;99599.78;6079629;19;20018;-72
2023/12/13 07:34:05;;;;;;;27.17;10.55;;;;;;;7.51;100.00;99597.13;6080394;19;20097;-73
2023/12/13 07:36:12;;;;;;;27.05;8.95;;;;;;;7.50;100.00;99605.03;6076208;19;20086;-72
2023/12/13 07:38:15;;;;;;;25.02;8.38;;;;;;;7.48;100.00;99611.19;6079013;19;20417;-75
2023/12/13 07:40:20;;;;;;;17.63;8.05;;;;;;;7.48;100.00;99607.72;6080523;19;20014;-73
2023/12/13 07:42:31;;;;;;;27.95;10.20;;;;;;;7.47;100.00;99606.00;6082745;19;20811;-73
2023/12/13 07:44:37;;;;;;;25.52;8.95;;;;;;;7.45;100.00;99611.34;6080130;19;20010;-74
2023/12/13 07:46:42;;;;;;;22.77;9.00;;;;;;;7.47;100.00;99613.84;6082504;19;20034;-74
2023/12/13 07:48:48;;;;;;;23.58;8.98;;;;;;;7.47;100.00;99619.09;6080311;19;20015;-74
2023/12/13 07:50:54;;;;;;;23.88;8.77;;;;;;;7.49;100.00;99619.88;6082376;19;20502;-75
2023/12/13 07:52:59;;;;;;;27.23;9.45;;;;;;;7.47;100.00;99616.47;6079740;19;20494;-75
2023/12/13 07:55:05;;;;;;;27.85;10.70;;;;;;;7.50;100.00;99621.56;6081225;19;20026;-75
2023/12/13 07:57:07;;;;;;;28.65;9.40;;;;;;;7.54;100.00;99623.13;6080927;19;20011;-77
2023/12/13 07:59:15;;;;;;;31.23;9.23;;;;;;;7.51;100.00;99627.66;6080434;19;20003;-74
2023/12/13 08:01:20;;;;;;;22.88;9.90;;;;;;;7.51;100.00;99635.50;6079485;19;20486;-73
2023/12/13 08:03:22;;;;;;;21.33;8.70;;;;;;;7.51;100.00;99630.25;6077432;19;20386;-72
2023/12/13 08:05:30;;;;;;;24.65;10.07;;;;;;;7.56;100.00;99633.50;6079588;19;20022;-72
2023/12/13 08:07:36;;;;;;;27.05;10.38;;;;;;;7.57;100.00;99629.97;6081317;19;19999;-72
2023/12/13 08:09:41;;;;;;;28.05;9.27;;;;;;;7.54;100.00;99625.72;6081100;19;20526;-74
2023/12/13 08:11:46;;;;;;;35.70;10.48;;;;;;;7.61;100.00;99631.50;6078386;19;20009;-73
2023/12/13 08:13:51;;;;;;;31.88;9.15;;;;;;;7.61;100.00;99634.97;6078246;19;20222;-74
2023/12/13 08:16:00;;;;;;;28.95;10.80;;;;;;;7.60;100.00;99632.44;6078494;19;20099;-75
2023/12/13 08:18:06;;;;;;;23.20;9.65;;;;;;;7.61;100.00;99634.09;6080238;19;20639;-76
2023/12/13 08:20:12;;;;;;;24.10;10.05;;;;;;;7.64;100.00;99627.00;6083221;19;20406;-75
2023/12/13 08:22:17;;;;;;;27.65;9.88;;;;;;;7.65;100.00;99636.50;6078849;19;20454;-74
2023/12/13 08:24:22;;;;;;;29.10;10.55;;;;;;;7.66;100.00;99638.22;6086319;19;20010;-75
2023/12/13 08:26:28;;;;;;;27.58;10.77;;;;;;;7.64;100.00;99634.81;6086994;19;20022;-73
2023/12/13 08:28:30;;;;;;;34.78;10.95;;;;;;;7.66;100.00;99637.34;6084525;19;20018;-75
2023/12/13 08:30:36;;;;;;;24.35;9.07;;;;;;;7.67;100.00;99641.69;6083203;19;20003;-72
2023/12/13 08:32:44;;;;;;;23.25;9.82;;;;;;;7.70;100.00;99644.16;6085470;19;20128;-74
2023/12/13 08:34:49;;;;;;;29.52;10.23;;;;;;;7.71;100.00;99645.81;6088120;19;20014;-71
2023/12/13 08:36:54;;;;;;;22.05;9.90;;;;;;;7.74;100.00;99637.84;6086436;19;20017;-74
2023/12/13 08:39:00;;;;;;;26.52;9.00;;;;;;;7.75;100.00;99646.53;6087277;19;20011;-71
2023/12/13 08:41:11;;;;;;;36.63;11.10;;;;;;;7.79;100.00;99645.47;6088312;19;20451;-72
2023/12/13 08:43:19;;;;;;;32.45;11.05;;;;;;;7.82;100.00;99654.03;6086951;19;20006;-70
2023/12/13 08:45:27;;;;;;;31.60;10.90;;;;;;;7.81;100.00;99651.47;6088037;19;20377;-71
2023/12/13 08:47:35;;;;;;;26.88;10.65;;;;;;;7.84;100.00;99649.53;6086340;19;20014;-71
2023/12/13 08:49:46;;;;;;;24.95;10.38;;;;;;;7.88;100.00;99661.56;6088047;19;20019;-71
2023/12/13 08:51:51;;;;;;;29.08;9.82;;;;;;;7.89;100.00;99659.78;6085377;19;20006;-72
2023/12/13 08:53:56;;;;;;;31.17;10.65;;;;;;;7.91;100.00;99658.78;6084639;19;20014;-71
2023/12/13 08:56:01;;;;;;;31.15;10.25;;;;;;;7.96;100.00;99655.97;6088928;19;20041;-70
2023/12/13 08:58:11;;;;;;;32.50;10.35;;;;;;;7.97;100.00;99662.03;6088344;19;20386;-75
2023/12/13 09:00:17;;;;;;;32.13;9.68;;;;;;;8.00;100.00;99667.13;6086677;19;20029;-70
2023/12/13 09:02:22;;;;;;;26.45;10.60;;;;;;;7.99;100.00;99670.66;6079487;19;20009;-70
2023/12/13 09:04:29;;;;;;;29.60;9.82;;;;;;;8.00;100.00;99664.50;6085603;19;20013;-73
2023/12/13 09:06:36;;;;;;;30.50;10.98;;;;;;;8.03;100.00;99669.56;6084529;19;20486;-74
2023/12/13 09:08:42;;;;;;;30.98;9.43;;;;;;;8.02;100.00;99673.13;6087581;19;20401;-73
2023/12/13 09:10:47;;;;;;;32.35;10.23;;;;;;;8.01;100.00;99674.06;6085636;19;20014;-74
2023/12/13 09:12:53;;;;;;;30.38;10.38;;;;;;;8.06;100.00;99679.91;6084608;19;20015;-74
2023/12/13 09:14:58;;;;;;;32.03;10.85;;;;;;;8.05;100.00;99675.59;6083489;19;20340;-72
2023/12/13 09:17:04;;;;;;;25.98;10.30;;;;;;;8.08;100.00;99685.91;6084131;19;20058;-73
2023/12/13 09:19:07;;;;;;;27.73;9.45;;;;;;;8.07;100.00;99682.44;6083568;19;20437;-73
2023/12/13 09:21:12;;;;;;;;;;;;;;;8.09;100.00;99682.38;6078835;19;20435;-73
2023/12/13 09:23:26;;;;;;;40.67;10.07;;;;;;;8.10;100.00;99686.69;6084913;19;20015;-73
2023/12/13 09:25:31;;;;;;;24.80;9.95;;;;;;;8.09;100.00;99682.38;6085219;19;20034;-75
2023/12/13 09:27:33;;;;;;;24.73;9.30;;;;;;;8.10;100.00;99681.44;6083436;19;20023;-76
2023/12/13 09:29:39;;;;;;;30.65;9.98;;;;;;;8.11;100.00;99691.00;6084702;19;20490;-75
2023/12/13 09:31:45;;;;;;;28.25;9.48;;;;;;;8.14;100.00;99688.25;6083080;19;20013;-75
2023/12/13 09:33:50;;;;;;;33.38;10.75;;;;;;;8.11;100.00;99686.63;6084990;19;20005;-73
2023/12/13 09:35:55;;;;;;;29.50;10.77;;;;;;;8.11;100.00;99686.63;6081553;19;20003;-72
2023/12/13 09:38:00;;;;;;;24.00;9.88;;;;;;;8.19;100.00;99699.34;6081722;19;20439;-72
2023/12/13 09:40:12;;;;;;;26.52;9.35;;;;;;;8.18;100.00;99687.16;6082865;19;20030;-74
2023/12/13 09:42:19;;;;;;;23.13;8.73;;;;;;;8.21;100.00;99697.47;6083337;19;20020;-73
2023/12/13 09:44:25;;;;;;;32.67;9.57;;;;;;;8.14;100.00;99696.09;6084136;19;20014;-72
2023/12/13 09:46:31;;;;;;;33.60;10.52;;;;;;;8.12;100.00;99693.53;6078491;19;20430;-73